createdAt,value
2023-06-29T00:02:05.606Z,15.40
2023-06-29T00:05:44.105Z,15.20
2023-06-29T00:09:10.603Z,15.05
2023-06-29T00:12:50.069Z,14.96
2023-06-29T00:16:38.184Z,14.91
2023-06-29T00:20:23.316Z,14.71
2023-06-29T00:24:06.944Z,14.71
2023-06-29T00:27:29.758Z,14.63
2023-06-29T00:31:13.111Z,14.63
2023-06-29T00:34:30.109Z,14.68
2023-06-29T00:38:06.786Z,14.73
2023-06-29T00:41:35.120Z,14.86
2023-06-29T00:45:02.896Z,14.94
2023-06-29T00:48:39.358Z,15.07
2023-06-29T00:52:01.413Z,15.16
2023-06-29T00:55:19.081Z,15.24
2023-06-29T00:58:45.812Z,15.27
2023-06-29T01:02:21.661Z,15.29
2023-06-29T01:06:29.203Z,15.32
2023-06-29T01:10:01.111Z,15.31
2023-06-29T01:13:37.241Z,15.32
2023-06-29T01:17:21.365Z,15.30
2023-06-29T01:20:53.663Z,15.20
2023-06-29T01:24:45.536Z,15.12
2023-06-29T01:28:18.034Z,15.13
2023-06-29T01:31:47.239Z,15.16
2023-06-29T01:35:20.678Z,15.21
2023-06-29T01:38:53.409Z,15.28
2023-06-29T01:42:31.385Z,15.42
2023-06-29T01:45:50.255Z,15.42
2023-06-29T01:49:26.146Z,15.38
2023-06-29T01:52:58.008Z,15.31
2023-06-29T01:56:30.575Z,15.23
2023-06-29T02:00:06.409Z,15.09
2023-06-29T02:03:51.390Z,15.07
2023-06-29T02:07:22.442Z,15.16
2023-06-29T02:10:43.780Z,15.17
2023-06-29T02:14:10.402Z,15.26
2023-06-29T02:17:30.050Z,15.25
2023-06-29T02:21:05.797Z,15.25
2023-06-29T02:24:45.069Z,15.23
2023-06-29T02:28:22.381Z,15.18
2023-06-29T02:31:58.337Z,15.21
2023-06-29T02:35:35.637Z,15.25
2023-06-29T02:39:09.036Z,15.26
2023-06-29T02:42:43.626Z,15.31
2023-06-29T02:46:23.124Z,15.40
2023-06-29T02:50:03.984Z,15.42
2023-06-29T02:53:44.126Z,15.36
2023-06-29T02:57:19.475Z,15.25
2023-06-29T03:00:52.723Z,15.18
2023-06-29T03:04:39.202Z,15.14
2023-06-29T03:08:26.659Z,15.09
2023-06-29T03:12:03.250Z,15.07
2023-06-29T03:15:37.268Z,15.07
2023-06-29T03:19:12.505Z,15.18
2023-06-29T03:22:52.774Z,15.27
2023-06-29T03:26:30.212Z,15.36
2023-06-29T03:29:54.838Z,15.53
2023-06-29T03:33:22.433Z,15.62
2023-06-29T03:36:57.260Z,15.69
2023-06-29T03:40:32.866Z,15.77
2023-06-29T03:44:09.397Z,15.82
2023-06-29T03:47:52.437Z,15.87
2023-06-29T03:51:29.646Z,15.91
2023-06-29T03:55:11.760Z,16.05
2023-06-29T03:58:49.333Z,16.22
2023-06-29T04:02:35.608Z,16.37
2023-06-29T04:05:57.423Z,16.45
2023-06-29T04:09:17.094Z,16.54
2023-06-29T04:12:45.783Z,16.64
2023-06-29T04:16:30.498Z,16.65
2023-06-29T04:19:49.682Z,16.67
2023-06-29T04:23:38.578Z,16.69
2023-06-29T04:27:11.777Z,16.81
2023-06-29T04:30:51.962Z,16.79
2023-06-29T04:34:24.313Z,16.82
2023-06-29T04:37:42.877Z,16.88
2023-06-29T04:41:11.850Z,16.91
2023-06-29T04:44:43.549Z,17.03
2023-06-29T04:48:34.774Z,17.03
2023-06-29T04:52:28.416Z,17.07
2023-06-29T04:56:09.585Z,17.17
2023-06-29T04:59:45.224Z,17.30
2023-06-29T05:03:18.043Z,17.43
2023-06-29T05:06:52.078Z,17.48
2023-06-29T05:10:27.310Z,17.57
2023-06-29T05:14:02.041Z,17.70
2023-06-29T05:17:35.518Z,17.76
2023-06-29T05:20:55.457Z,17.93
2023-06-29T05:24:31.469Z,17.96
2023-06-29T05:28:17.616Z,18.08
2023-06-29T05:31:56.241Z,18.25
2023-06-29T05:35:33.328Z,18.35
2023-06-29T05:39:17.442Z,18.51
2023-06-29T05:42:59.363Z,18.68
2023-06-29T05:46:34.686Z,18.82
2023-06-29T05:50:14.318Z,18.92
2023-06-29T05:53:46.626Z,19.12
2023-06-29T05:57:29.858Z,19.20
2023-06-29T06:01:10.345Z,19.31
2023-06-29T06:04:49.125Z,19.44
2023-06-29T06:08:34.673Z,19.58
2023-06-29T06:11:52.069Z,19.68
2023-06-29T06:15:33.543Z,19.89
2023-06-29T06:18:39.704Z,19.91
2023-06-29T06:22:13.268Z,20.06
2023-06-29T06:25:37.393Z,20.18
2023-06-29T06:28:41.429Z,20.27
2023-06-29T06:32:00.036Z,20.32
2023-06-29T06:35:18.296Z,20.43
2023-06-29T06:38:55.885Z,20.52
2023-06-29T06:42:32.661Z,20.73
2023-06-29T06:46:05.391Z,20.88
2023-06-29T06:49:09.296Z,21.06
2023-06-29T06:52:16.194Z,21.12
2023-06-29T06:55:19.423Z,21.17
2023-06-29T06:58:25.115Z,21.30
2023-06-29T07:01:28.665Z,21.54
2023-06-29T07:04:32.237Z,21.82
2023-06-29T07:07:39.070Z,21.70
2023-06-29T07:10:42.292Z,21.90
2023-06-29T07:13:49.661Z,22.18
2023-06-29T07:16:57.173Z,22.31
2023-06-29T07:27:08.357Z,22.60
2023-06-29T07:30:12.117Z,22.75
2023-06-29T07:33:17.490Z,23.47
2023-06-29T07:36:40.596Z,23.55
2023-06-29T07:39:47.244Z,24.26
2023-06-29T07:42:50.146Z,25.06
2023-06-29T07:45:53.661Z,25.57
2023-06-29T07:48:57.286Z,25.95
2023-06-29T07:52:33.313Z,25.79
2023-06-29T07:55:39.825Z,26.97
2023-06-29T07:58:45.002Z,26.35
2023-06-29T08:01:52.350Z,27.20
2023-06-29T08:09:05.389Z,27.18
2023-06-29T08:12:12.127Z,27.08
2023-06-29T08:15:17.678Z,27.94
2023-06-29T08:18:21.268Z,27.82
2023-06-29T08:21:26.141Z,28.87
2023-06-29T08:24:35.373Z,28.93
2023-06-29T08:27:43.677Z,29.20
2023-06-29T08:30:52.075Z,29.66
2023-06-29T08:34:17.737Z,28.84
2023-06-29T08:37:41.444Z,29.68
2023-06-29T08:40:50.521Z,30.28
2023-06-29T08:44:14.752Z,30.62
2023-06-29T08:47:18.460Z,29.99
2023-06-29T08:50:50.371Z,31.71
2023-06-29T08:54:28.075Z,30.62
2023-06-29T09:01:44.384Z,29.95
2023-06-29T09:04:51.766Z,31.45
2023-06-29T09:07:55.501Z,31.48
2023-06-29T09:10:59.362Z,31.99
2023-06-29T09:14:39.737Z,32.34
2023-06-29T09:17:59.880Z,32.33
2023-06-29T09:21:10.718Z,32.14
2023-06-29T09:24:15.812Z,31.41
2023-06-29T09:27:42.170Z,32.14
2023-06-29T09:30:56.070Z,33.49
2023-06-29T09:34:56.826Z,33.01
2023-06-29T09:38:05.373Z,31.78
2023-06-29T09:41:48.409Z,33.19
2023-06-29T09:44:53.624Z,31.52
2023-06-29T09:51:41.363Z,30.05
2023-06-29T09:54:46.840Z,31.67
2023-06-29T09:59:16.864Z,32.85
2023-06-29T10:12:17.775Z,31.79
2023-06-29T10:27:27.779Z,30.57
2023-06-29T11:07:10.922Z,30.32
2023-06-29T11:35:36.585Z,28.57
2023-06-29T11:42:12.495Z,28.47
2023-06-29T11:46:08.765Z,28.47
2023-06-29T11:49:21.896Z,28.74
2023-06-29T11:52:26.759Z,28.86
2023-06-29T11:55:30.931Z,30.46
2023-06-29T11:58:37.044Z,29.98
2023-06-29T12:01:42.345Z,29.42
2023-06-29T12:04:59.780Z,28.27
2023-06-29T12:08:11.888Z,29.48
2023-06-29T12:11:22.982Z,30.22
2023-06-29T12:14:35.468Z,29.54
2023-06-29T12:21:06.054Z,28.01
2023-06-29T12:24:09.721Z,27.70
2023-06-29T12:27:14.322Z,28.05
2023-06-29T12:30:22.796Z,27.69
2023-06-29T12:33:45.313Z,27.41
2023-06-29T12:36:51.622Z,28.88
2023-06-29T12:40:16.650Z,29.28
2023-06-29T12:43:22.321Z,30.84
2023-06-29T12:46:28.543Z,31.63
2023-06-29T12:49:31.771Z,31.64
2023-06-29T12:52:34.787Z,31.60
2023-06-29T12:55:41.047Z,31.09
2023-06-29T12:58:44.849Z,30.18
2023-06-29T13:01:48.621Z,29.17
2023-06-29T13:04:54.698Z,29.05
2023-06-29T13:08:08.401Z,28.47
2023-06-29T13:11:13.455Z,28.70
2023-06-29T13:14:21.926Z,28.79
2023-06-29T13:17:30.335Z,28.77
2023-06-29T13:20:34.544Z,28.84
2023-06-29T13:23:37.802Z,28.57
2023-06-29T13:26:44.345Z,28.87
2023-06-29T13:29:47.525Z,29.07
2023-06-29T13:32:51.133Z,28.64
2023-06-29T13:35:54.655Z,28.01
2023-06-29T13:38:58.604Z,27.93
2023-06-29T13:42:01.862Z,27.99
2023-06-29T13:45:13.622Z,28.38
2023-06-29T13:48:16.615Z,28.90
2023-06-29T13:51:25.435Z,28.81
2023-06-29T13:58:01.394Z,28.63
2023-06-29T14:01:47.317Z,28.87
2023-06-29T14:05:08.778Z,28.80
2023-06-29T14:08:12.624Z,28.61
2023-06-29T14:11:20.829Z,28.77
2023-06-29T14:14:25.139Z,28.73
2023-06-29T14:17:39.646Z,28.67
2023-06-29T14:20:43.443Z,28.52
2023-06-29T14:23:54.084Z,28.73
2023-06-29T14:27:03.607Z,28.76
2023-06-29T14:30:32.767Z,28.75
2023-06-29T14:34:07.997Z,28.61
2023-06-29T14:37:10.937Z,28.31
2023-06-29T14:40:14.312Z,27.68
2023-06-29T14:43:19.589Z,27.91
2023-06-29T14:46:22.943Z,28.15
2023-06-29T14:49:29.377Z,27.86
2023-06-29T14:52:33.443Z,27.84
2023-06-29T14:55:38.299Z,28.47
2023-06-29T14:59:16.663Z,28.87
2023-06-29T15:02:30.436Z,28.97
2023-06-29T15:06:07.854Z,29.31
2023-06-29T15:10:23.622Z,28.99
2023-06-29T15:13:29.634Z,29.43
2023-06-29T15:16:55.253Z,29.65
2023-06-29T15:19:58.811Z,29.35
2023-06-29T15:23:02.756Z,29.29
2023-06-29T15:26:13.131Z,29.09
2023-06-29T15:29:55.463Z,28.86
2023-06-29T15:33:36.310Z,28.62
2023-06-29T15:37:05.686Z,28.19
2023-06-29T15:40:22.992Z,27.86
2023-06-29T15:44:13.816Z,27.62
2023-06-29T15:48:13.639Z,28.06
2023-06-29T15:51:59.207Z,28.64
2023-06-29T15:56:37.229Z,28.66
2023-06-29T16:05:01.125Z,28.81
2023-06-29T16:08:29.963Z,28.75
2023-06-29T16:13:00.307Z,28.65
2023-06-29T16:17:29.824Z,28.67
2023-06-29T16:20:31.973Z,28.10
2023-06-29T16:23:57.229Z,27.68
2023-06-29T16:27:28.518Z,27.61
2023-06-29T16:31:03.730Z,27.08
2023-06-29T16:34:08.462Z,26.96
2023-06-29T16:37:47.924Z,26.75
2023-06-29T16:41:01.664Z,26.77
2023-06-29T16:44:04.920Z,26.61
2023-06-29T16:47:09.689Z,26.46
2023-06-29T16:50:15.231Z,26.43
2023-06-29T16:53:33.706Z,26.43
2023-06-29T16:57:26.851Z,26.45
2023-06-29T17:00:50.608Z,26.47
2023-06-29T17:03:54.852Z,26.49
2023-06-29T17:06:59.508Z,26.46
2023-06-29T17:10:02.659Z,26.36
2023-06-29T17:13:07.846Z,26.09
2023-06-29T17:16:13.592Z,26.12
2023-06-29T17:19:17.877Z,26.14
2023-06-29T17:22:22.593Z,26.13
2023-06-29T17:25:26.507Z,26.23
2023-06-29T17:28:31.059Z,26.02
2023-06-29T17:31:43.307Z,25.84
2023-06-29T17:34:46.576Z,25.62
2023-06-29T17:37:50.817Z,25.37
2023-06-29T17:40:59.568Z,25.08
2023-06-29T17:44:02.740Z,25.18
2023-06-29T17:47:07.497Z,25.13
2023-06-29T17:50:12.266Z,24.99
2023-06-29T17:53:16.876Z,24.79
2023-06-29T17:56:40.430Z,24.81
2023-06-29T17:59:45.088Z,24.64
2023-06-29T18:02:53.461Z,24.62
2023-06-29T18:05:59.475Z,24.42
2023-06-29T18:09:35.842Z,24.36
2023-06-29T18:12:42.499Z,24.30
2023-06-29T18:15:48.294Z,24.13
2023-06-29T18:18:52.640Z,24.08
2023-06-29T18:21:59.176Z,23.94
2023-06-29T18:25:03.924Z,23.77
2023-06-29T18:28:07.915Z,23.66
2023-06-29T18:31:12.658Z,23.57
2023-06-29T18:34:17.112Z,23.49
2023-06-29T18:37:21.430Z,23.35
2023-06-29T18:40:28.417Z,23.20
2023-06-29T18:43:32.497Z,23.12
2023-06-29T18:46:41.796Z,23.03
2023-06-29T18:49:52.289Z,22.91
2023-06-29T18:52:58.718Z,22.78
2023-06-29T18:56:02.623Z,22.67
2023-06-29T18:59:09.016Z,22.52
2023-06-29T19:02:13.126Z,22.38
2023-06-29T19:05:20.177Z,22.23
2023-06-29T19:08:26.645Z,22.07
2023-06-29T19:11:52.932Z,21.97
2023-06-29T19:14:57.354Z,21.87
2023-06-29T19:18:17.024Z,21.72
2023-06-29T19:21:29.403Z,21.58
2023-06-29T19:24:43.422Z,21.44
2023-06-29T19:27:49.318Z,21.29
2023-06-29T19:30:52.366Z,21.20
2023-06-29T19:33:56.286Z,21.08
2023-06-29T19:37:02.557Z,20.95
2023-06-29T19:40:08.582Z,20.90
2023-06-29T19:43:14.260Z,20.74
2023-06-29T19:46:19.805Z,20.68
2023-06-29T19:49:24.101Z,20.60
2023-06-29T19:52:29.717Z,20.48
2023-06-29T19:55:33.074Z,20.38
2023-06-29T19:58:39.073Z,20.27
2023-06-29T20:01:42.227Z,20.16
2023-06-29T20:04:45.714Z,20.09
2023-06-29T20:07:53.674Z,20.02
2023-06-29T20:11:25.469Z,19.91
2023-06-29T20:14:30.119Z,19.80
2023-06-29T20:17:36.180Z,19.74
2023-06-29T20:21:15.945Z,19.66
2023-06-29T20:28:50.722Z,19.46
2023-06-29T20:31:53.877Z,19.31
2023-06-29T20:35:00.398Z,19.24
2023-06-29T20:38:04.933Z,19.19
2023-06-29T20:41:12.949Z,19.11
2023-06-29T20:44:16.079Z,19.00
2023-06-29T20:47:20.498Z,18.91
2023-06-29T20:50:25.245Z,18.83
2023-06-29T20:53:28.191Z,18.77
2023-06-29T20:56:33.708Z,18.71
2023-06-29T20:59:39.132Z,18.63
2023-06-29T21:02:46.505Z,18.54
2023-06-29T21:05:50.868Z,18.49
2023-06-29T21:08:54.479Z,18.44
2023-06-29T21:12:00.090Z,18.39
2023-06-29T21:15:27.820Z,18.33
2023-06-29T21:18:31.153Z,18.27
2023-06-29T21:21:34.414Z,18.21
2023-06-29T21:24:38.118Z,18.15
2023-06-29T21:27:43.835Z,18.05
2023-06-29T21:30:49.232Z,18.06
2023-06-29T21:33:54.082Z,17.98
2023-06-29T21:36:57.853Z,17.93
2023-06-29T21:40:01.118Z,17.85
2023-06-29T21:43:04.596Z,17.84
2023-06-29T21:46:08.339Z,17.76
2023-06-29T21:49:11.863Z,17.67
2023-06-29T21:52:21.458Z,17.61
2023-06-29T21:55:27.771Z,17.55
2023-06-29T21:58:33.401Z,17.53
2023-06-29T22:01:37.986Z,17.43
2023-06-29T22:04:41.768Z,17.38
2023-06-29T22:07:46.785Z,17.35
2023-06-29T22:10:50.548Z,17.33
2023-06-29T22:13:54.025Z,17.26
2023-06-29T22:16:59.964Z,17.20
2023-06-29T22:20:19.768Z,17.18
2023-06-29T22:23:42.991Z,17.13
2023-06-29T22:26:46.319Z,17.05
2023-06-29T22:29:50.486Z,17.01
2023-06-29T22:32:53.448Z,16.98
2023-06-29T22:35:59.485Z,16.93
2023-06-29T22:39:23.241Z,16.90
2023-06-29T22:42:26.886Z,16.84
2023-06-29T22:45:32.294Z,16.77
2023-06-29T22:48:51.389Z,16.72
2023-06-29T22:51:55.138Z,16.67
2023-06-29T22:54:58.590Z,16.70
2023-06-29T22:58:01.710Z,16.66
2023-06-29T23:01:05.413Z,16.65
2023-06-29T23:04:17.100Z,16.56
2023-06-29T23:07:23.655Z,16.53
2023-06-29T23:10:28.957Z,16.48
2023-06-29T23:13:35.844Z,16.43
2023-06-29T23:16:38.640Z,16.40
2023-06-29T23:19:42.118Z,16.36
2023-06-29T23:22:45.653Z,16.31
2023-06-29T23:25:52.934Z,16.30
2023-06-29T23:28:56.143Z,16.24
2023-06-29T23:31:59.890Z,16.22
2023-06-29T23:35:06.620Z,16.24
2023-06-29T23:38:10.178Z,16.20
2023-06-29T23:41:13.154Z,16.21
2023-06-29T23:44:16.752Z,16.16
2023-06-29T23:47:20.172Z,16.08
2023-06-29T23:50:23.686Z,15.98
2023-06-29T23:53:28.472Z,15.97
2023-06-29T23:56:33.463Z,15.97
2023-06-29T23:59:37.126Z,15.93
